createdAt,value
2022-08-17T00:00:34.738Z,25
2022-08-17T00:01:54.462Z,25
2022-08-17T00:02:57.896Z,25
2022-08-17T00:04:00.442Z,25
2022-08-17T00:05:02.598Z,25
2022-08-17T00:06:04.616Z,25
2022-08-17T00:07:06.505Z,25
2022-08-17T00:08:08.356Z,25
2022-08-17T00:09:10.204Z,25
2022-08-17T00:10:20.965Z,25
2022-08-17T00:11:22.890Z,25
2022-08-17T00:12:40.432Z,25
2022-08-17T00:13:46.483Z,25
2022-08-17T00:14:48.330Z,25
2022-08-17T00:15:50.238Z,25
2022-08-17T00:16:56.690Z,25
2022-08-17T00:17:59.607Z,25
2022-08-17T00:19:07.137Z,25
2022-08-17T00:20:10.458Z,25
2022-08-17T00:21:12.393Z,25
2022-08-17T00:22:33.396Z,25
2022-08-17T00:23:49.396Z,25
2022-08-17T00:24:51.940Z,25
2022-08-17T00:25:53.836Z,25
2022-08-17T00:26:55.714Z,25
2022-08-17T00:27:58.108Z,25
2022-08-17T00:29:01.768Z,25
2022-08-17T00:30:03.592Z,25
2022-08-17T00:31:05.358Z,25
2022-08-17T00:33:10.367Z,25
2022-08-17T00:34:25.703Z,25
2022-08-17T00:35:35.145Z,25.1
2022-08-17T00:36:37.011Z,25.1
2022-08-17T00:37:38.762Z,25
2022-08-17T00:38:40.610Z,25
2022-08-17T00:39:42.557Z,25
2022-08-17T00:40:45.079Z,25
2022-08-17T00:41:46.800Z,25
2022-08-17T00:42:48.735Z,25
2022-08-17T00:43:51.603Z,25
2022-08-17T00:44:53.518Z,25
2022-08-17T00:45:55.402Z,25
2022-08-17T00:46:57.254Z,25
2022-08-17T00:47:59.159Z,24.9
2022-08-17T00:49:01.131Z,24.9
2022-08-17T00:50:03.009Z,25
2022-08-17T00:51:04.912Z,25
2022-08-17T00:52:10.906Z,25
2022-08-17T00:53:14.398Z,25
2022-08-17T00:54:16.279Z,25
2022-08-17T00:55:18.198Z,25
2022-08-17T00:56:20.080Z,25
2022-08-17T00:57:21.901Z,25
2022-08-17T00:58:28.675Z,24.9
2022-08-17T00:59:38.630Z,24.9
2022-08-17T01:00:40.586Z,24.9
2022-08-17T01:01:42.812Z,24.9
2022-08-17T01:02:44.696Z,24.9
2022-08-17T01:03:46.761Z,24.9
2022-08-17T01:04:48.607Z,24.9
2022-08-17T01:05:50.416Z,24.9
2022-08-17T01:06:52.889Z,24.9
2022-08-17T01:07:54.736Z,24.9
2022-08-17T01:08:57.261Z,24.9
2022-08-17T01:09:59.938Z,24.9
2022-08-17T01:11:02.096Z,24.9
2022-08-17T01:12:04.199Z,24.9
2022-08-17T01:13:06.034Z,24.9
2022-08-17T01:14:07.957Z,24.9
2022-08-17T01:15:09.834Z,24.9
2022-08-17T01:16:11.684Z,24.9
2022-08-17T01:17:13.535Z,24.9
2022-08-17T01:18:15.391Z,24.9
2022-08-17T01:19:17.267Z,24.9
2022-08-17T01:20:19.117Z,24.9
2022-08-17T01:21:20.935Z,24.9
2022-08-17T01:22:22.783Z,24.9
2022-08-17T01:23:27.300Z,24.9
2022-08-17T01:24:29.179Z,24.9
2022-08-17T01:25:30.997Z,24.9
2022-08-17T01:26:32.849Z,24.9
2022-08-17T01:27:34.761Z,24.9
2022-08-17T01:28:53.491Z,24.9
2022-08-17T01:29:57.683Z,24.9
2022-08-17T01:30:59.620Z,24.9
2022-08-17T01:32:01.553Z,24.9
2022-08-17T01:33:03.406Z,24.9
2022-08-17T01:34:05.269Z,24.9
2022-08-17T01:35:08.258Z,24.9
2022-08-17T01:36:10.073Z,24.9
2022-08-17T01:37:11.930Z,24.9
2022-08-17T01:38:13.780Z,24.9
2022-08-17T01:39:15.735Z,24.9
2022-08-17T01:40:17.678Z,24.9
2022-08-17T01:41:19.534Z,24.9
2022-08-17T01:42:21.433Z,24.9
2022-08-17T01:43:23.335Z,24.9
2022-08-17T01:44:25.937Z,24.9
2022-08-17T01:45:29.491Z,24.9
2022-08-17T01:46:31.345Z,24.9
2022-08-17T01:47:33.396Z,24.9
2022-08-17T01:48:38.012Z,24.9
2022-08-17T01:49:39.896Z,24.9
2022-08-17T01:50:41.817Z,24.9
2022-08-17T01:51:43.662Z,24.9
2022-08-17T01:52:45.519Z,24.9
2022-08-17T01:53:47.466Z,24.9
2022-08-17T01:54:49.352Z,24.9
2022-08-17T01:55:51.166Z,24.9
2022-08-17T01:56:53.018Z,24.9
2022-08-17T01:57:54.869Z,24.9
2022-08-17T01:58:56.744Z,24.9
2022-08-17T01:59:58.548Z,24.9
2022-08-17T02:01:01.540Z,24.8
2022-08-17T02:02:03.906Z,24.9
2022-08-17T02:03:05.755Z,24.8
2022-08-17T02:04:07.682Z,24.8
2022-08-17T02:05:09.571Z,24.8
2022-08-17T02:06:26.966Z,24.9
2022-08-17T02:07:30.156Z,24.9
2022-08-17T02:08:36.942Z,24.9
2022-08-17T02:10:05.319Z,24.9
2022-08-17T02:11:22.144Z,24.9
2022-08-17T02:12:38.747Z,24.9
2022-08-17T02:13:49.445Z,24.9
2022-08-17T02:15:05.533Z,24.9
2022-08-17T02:16:07.413Z,24.9
2022-08-17T02:17:09.273Z,24.9
2022-08-17T02:18:11.181Z,24.9
2022-08-17T02:19:13.029Z,24.9
2022-08-17T02:20:14.860Z,24.9
2022-08-17T02:21:44.237Z,24.9
2022-08-17T02:22:46.257Z,24.9
2022-08-17T02:23:48.285Z,24.9
2022-08-17T02:24:59.263Z,24.9
2022-08-17T02:26:04.375Z,24.8
2022-08-17T02:27:06.290Z,24.8
2022-08-17T02:28:08.177Z,24.8
2022-08-17T02:29:10.031Z,24.8
2022-08-17T02:30:50.043Z,24.8
2022-08-17T02:32:04.892Z,24.9
2022-08-17T02:33:09.191Z,24.9
2022-08-17T02:34:11.079Z,24.9
2022-08-17T02:35:12.936Z,24.9
2022-08-17T02:36:14.785Z,24.9
2022-08-17T02:37:16.592Z,24.8
2022-08-17T02:38:18.546Z,24.8
2022-08-17T02:39:20.339Z,24.8
2022-08-17T02:40:35.070Z,24.8
2022-08-17T02:41:38.633Z,24.8
2022-08-17T02:42:40.357Z,24.8
2022-08-17T02:43:42.068Z,24.8
2022-08-17T02:44:43.820Z,24.8
2022-08-17T02:45:45.569Z,24.8
2022-08-17T02:46:47.478Z,24.8
2022-08-17T02:47:49.339Z,24.8
2022-08-17T02:48:51.049Z,24.8
2022-08-17T02:49:54.385Z,24.8
2022-08-17T02:50:58.013Z,24.8
2022-08-17T02:51:59.699Z,24.8
2022-08-17T02:53:02.831Z,24.8
2022-08-17T02:54:39.024Z,24.8
2022-08-17T02:55:44.113Z,24.8
2022-08-17T02:56:45.947Z,24.8
2022-08-17T02:57:47.649Z,24.8
2022-08-17T02:58:49.325Z,24.8
2022-08-17T02:59:51.024Z,24.8
2022-08-17T03:00:52.979Z,24.7
2022-08-17T03:01:54.636Z,24.8
2022-08-17T03:02:56.654Z,24.8
2022-08-17T03:03:58.235Z,24.7
2022-08-17T03:04:59.777Z,24.7
2022-08-17T03:06:01.469Z,24.7
2022-08-17T03:07:03.143Z,24.7
2022-08-17T03:08:04.891Z,24.7
2022-08-17T03:09:06.466Z,24.7
2022-08-17T03:10:08.092Z,24.7
2022-08-17T03:11:09.760Z,24.7
2022-08-17T03:12:11.373Z,24.7
2022-08-17T03:13:13.116Z,24.7
2022-08-17T03:14:14.692Z,24.7
2022-08-17T03:15:16.387Z,24.7
2022-08-17T03:16:18.116Z,24.7
2022-08-17T03:17:19.844Z,24.7
2022-08-17T03:18:25.162Z,24.7
2022-08-17T03:19:27.958Z,24.7
2022-08-17T03:20:29.747Z,24.7
2022-08-17T03:21:31.365Z,24.7
2022-08-17T03:22:36.307Z,24.7
2022-08-17T03:23:41.727Z,24.7
2022-08-17T03:24:43.530Z,24.7
2022-08-17T03:25:46.403Z,24.7
2022-08-17T03:26:48.211Z,24.7
2022-08-17T03:27:50.262Z,24.7
2022-08-17T03:28:53.320Z,24.7
2022-08-17T03:29:54.933Z,24.7
2022-08-17T03:30:56.601Z,24.7
2022-08-17T03:31:58.309Z,24.7
2022-08-17T03:32:59.854Z,24.7
2022-08-17T03:34:01.550Z,24.6
2022-08-17T03:35:03.160Z,24.7
2022-08-17T03:36:04.802Z,24.7
2022-08-17T03:37:06.573Z,24.7
2022-08-17T03:38:08.117Z,24.7
2022-08-17T03:39:09.793Z,24.7
2022-08-17T03:40:11.414Z,24.6
2022-08-17T03:41:13.593Z,24.7
2022-08-17T03:42:31.746Z,24.7
2022-08-17T03:43:34.543Z,24.6
2022-08-17T03:44:36.354Z,24.6
2022-08-17T03:45:37.946Z,24.6
2022-08-17T03:46:40.941Z,24.5
2022-08-17T03:47:42.579Z,24.5
2022-08-17T03:48:45.908Z,24.5
2022-08-17T03:49:47.547Z,24.5
2022-08-17T03:50:51.784Z,24.5
2022-08-17T03:51:53.374Z,24.4
2022-08-17T03:52:54.950Z,24.5
2022-08-17T03:53:56.610Z,24.5
2022-08-17T03:54:58.207Z,24.5
2022-08-17T03:55:59.747Z,24.4
2022-08-17T03:57:01.305Z,24.4
2022-08-17T03:58:02.968Z,24.4
2022-08-17T03:59:04.796Z,24.4
2022-08-17T04:00:06.559Z,24.4
2022-08-17T04:01:08.431Z,24.4
2022-08-17T04:02:10.388Z,24.4
2022-08-17T04:03:11.955Z,24.4
2022-08-17T04:04:13.681Z,24.3
2022-08-17T04:05:15.395Z,24.3
2022-08-17T04:06:16.987Z,24.3
2022-08-17T04:07:18.664Z,24.3
2022-08-17T04:08:20.284Z,24.3
2022-08-17T04:09:21.923Z,24.3
2022-08-17T04:10:26.336Z,24.3
2022-08-17T04:11:28.111Z,24.3
2022-08-17T04:12:29.609Z,24.3
2022-08-17T04:13:31.350Z,24.4
2022-08-17T04:14:32.940Z,24.4
2022-08-17T04:15:34.558Z,24.4
2022-08-17T04:16:36.217Z,24.4
2022-08-17T04:17:37.792Z,24.4
2022-08-17T04:18:39.368Z,24.4
2022-08-17T04:19:40.976Z,24.4
2022-08-17T04:20:42.581Z,24.4
2022-08-17T04:21:44.151Z,24.5
2022-08-17T04:22:45.810Z,24.5
2022-08-17T04:23:57.290Z,24.5
2022-08-17T04:24:58.864Z,24.4
2022-08-17T04:26:00.599Z,24.5
2022-08-17T04:27:02.180Z,24.5
2022-08-17T04:28:03.804Z,24.5
2022-08-17T04:29:18.082Z,24.5
2022-08-17T04:30:19.765Z,24.5
2022-08-17T04:31:21.398Z,24.6
2022-08-17T04:32:25.129Z,24.6
2022-08-17T04:34:20.909Z,24.6
2022-08-17T04:35:22.498Z,24.7
2022-08-17T04:36:24.321Z,24.7
2022-08-17T04:37:25.887Z,24.7
2022-08-17T04:38:27.464Z,24.7
2022-08-17T04:39:29.424Z,24.7
2022-08-17T04:40:31.395Z,24.7
2022-08-17T04:41:32.976Z,24.7
2022-08-17T04:42:34.519Z,24.7
2022-08-17T04:43:36.138Z,24.7
2022-08-17T04:44:38.326Z,24.7
2022-08-17T04:45:39.901Z,24.7
2022-08-17T04:46:58.157Z,24.7
2022-08-17T04:47:59.743Z,24.8
2022-08-17T04:49:01.369Z,24.8
2022-08-17T04:50:03.051Z,24.8
2022-08-17T04:51:04.702Z,24.9
2022-08-17T04:52:06.517Z,24.9
2022-08-17T04:53:33.387Z,24.9
2022-08-17T04:54:34.955Z,24.9
2022-08-17T04:55:36.630Z,24.9
2022-08-17T04:56:38.288Z,24.9
2022-08-17T04:57:43.159Z,24.9
2022-08-17T04:58:46.903Z,24.9
2022-08-17T04:59:48.486Z,24.9
2022-08-17T05:00:50.194Z,24.9
2022-08-17T05:01:52.290Z,24.8
2022-08-17T05:02:54.183Z,24.9
2022-08-17T05:03:57.149Z,24.9
2022-08-17T05:04:58.704Z,24.9
2022-08-17T05:06:01.697Z,24.9
2022-08-17T05:07:03.452Z,24.9
2022-08-17T05:08:05.077Z,24.9
2022-08-17T05:09:07.255Z,24.9
2022-08-17T05:10:08.884Z,24.9
2022-08-17T05:11:10.555Z,24.9
2022-08-17T05:12:12.308Z,24.9
2022-08-17T05:13:13.949Z,24.9
2022-08-17T05:14:15.491Z,24.9
2022-08-17T05:15:17.225Z,24.9
2022-08-17T05:16:23.857Z,24.8
2022-08-17T05:17:25.428Z,24.8
2022-08-17T05:18:27.028Z,24.8
2022-08-17T05:19:28.641Z,24.9
2022-08-17T05:20:30.404Z,24.9
2022-08-17T05:21:31.960Z,24.9
2022-08-17T05:22:33.659Z,24.9
2022-08-17T05:23:42.190Z,24.9
2022-08-17T05:24:57.495Z,24.9
2022-08-17T05:25:59.565Z,24.9
2022-08-17T05:27:05.067Z,25
2022-08-17T05:28:08.494Z,25.1
2022-08-17T05:29:10.994Z,25.1
2022-08-17T05:30:12.693Z,25.2
2022-08-17T05:31:14.491Z,25.2
2022-08-17T05:32:37.542Z,25.3
2022-08-17T05:33:44.495Z,25.4
2022-08-17T05:34:47.977Z,25.4
2022-08-17T05:35:49.569Z,25.4
2022-08-17T05:36:51.349Z,25.4
2022-08-17T05:37:52.893Z,25.4
2022-08-17T05:38:59.230Z,25.4
2022-08-17T05:40:01.472Z,25.3
2022-08-17T05:41:03.805Z,25.3
2022-08-17T05:42:05.497Z,25.3
2022-08-17T05:43:07.162Z,25.2
2022-08-17T05:44:08.817Z,25.2
2022-08-17T05:45:10.533Z,25.3
2022-08-17T05:46:12.183Z,25.4
2022-08-17T05:47:13.724Z,25.4
2022-08-17T05:48:15.273Z,25.4
2022-08-17T05:49:16.920Z,25.4
2022-08-17T05:50:20.334Z,25.4
2022-08-17T05:51:31.365Z,25.3
2022-08-17T05:52:33.117Z,25.4
2022-08-17T05:53:35.209Z,25.4
2022-08-17T05:54:47.227Z,25.4
2022-08-17T05:55:49.055Z,25.4
2022-08-17T05:56:50.728Z,25.4
2022-08-17T05:57:53.427Z,25.4
2022-08-17T05:58:58.175Z,25.5
2022-08-17T05:59:59.748Z,25.5
2022-08-17T06:01:01.515Z,25.5
2022-08-17T06:02:03.502Z,25.5
2022-08-17T06:03:05.256Z,25.5
2022-08-17T06:04:06.894Z,25.5
2022-08-17T06:05:08.454Z,25.5
2022-08-17T06:06:11.392Z,25.5
2022-08-17T06:07:13.161Z,25.6
2022-08-17T06:08:14.758Z,25.6
2022-08-17T06:09:18.782Z,25.6
2022-08-17T06:10:35.413Z,25.7
2022-08-17T06:11:37.284Z,25.7
2022-08-17T06:12:38.945Z,25.7
2022-08-17T06:13:40.517Z,25.7
2022-08-17T06:14:42.162Z,25.7
2022-08-17T06:15:43.858Z,25.7
2022-08-17T06:16:45.397Z,25.7
2022-08-17T06:17:46.949Z,25.7
2022-08-17T06:18:48.603Z,25.8
2022-08-17T06:19:50.254Z,25.8
2022-08-17T06:20:52.004Z,25.8
2022-08-17T06:21:53.545Z,25.8
2022-08-17T06:22:55.129Z,25.8
2022-08-17T06:23:56.977Z,25.8
2022-08-17T06:24:58.761Z,25.8
2022-08-17T06:26:00.387Z,25.8
2022-08-17T06:27:02.115Z,25.8
2022-08-17T06:28:03.674Z,25.9
2022-08-17T06:29:05.409Z,26
2022-08-17T06:30:20.411Z,26
2022-08-17T06:31:24.710Z,26
2022-08-17T06:32:26.426Z,26
2022-08-17T06:33:28.088Z,26
2022-08-17T06:34:29.626Z,26
2022-08-17T06:35:31.932Z,26
2022-08-17T06:36:35.835Z,25.9
2022-08-17T06:37:37.460Z,25.9
2022-08-17T06:38:39.050Z,26
2022-08-17T06:39:40.692Z,26
2022-08-17T06:40:42.888Z,25.9
2022-08-17T06:41:44.542Z,25.9
2022-08-17T06:42:54.268Z,25.9
2022-08-17T06:44:09.221Z,26
2022-08-17T06:45:10.854Z,26
2022-08-17T06:46:12.532Z,26.1
2022-08-17T06:47:14.142Z,26.1
2022-08-17T06:48:30.772Z,26
2022-08-17T06:49:32.497Z,26
2022-08-17T06:50:34.113Z,26
2022-08-17T06:51:35.832Z,26
2022-08-17T06:52:42.254Z,26.1
2022-08-17T06:53:58.721Z,26.2
2022-08-17T06:55:00.369Z,26.2
2022-08-17T06:56:01.926Z,26.2
2022-08-17T06:57:03.602Z,26.1
2022-08-17T06:58:05.837Z,26.1
2022-08-17T06:59:18.473Z,26.1
2022-08-17T07:00:20.033Z,26.1
2022-08-17T07:01:21.689Z,26
2022-08-17T07:02:28.869Z,26
2022-08-17T07:03:54.916Z,26.2
2022-08-17T07:04:56.583Z,26.3
2022-08-17T07:05:58.118Z,26.2
2022-08-17T07:07:00.617Z,26.1
2022-08-17T07:08:02.252Z,26.1
2022-08-17T07:09:04.039Z,26.1
2022-08-17T07:10:05.894Z,26.1
2022-08-17T07:11:07.694Z,26
2022-08-17T07:12:09.247Z,26
2022-08-17T07:13:10.882Z,26
2022-08-17T07:14:16.632Z,26
2022-08-17T07:15:19.172Z,26
2022-08-17T07:16:20.840Z,26.1
2022-08-17T07:17:22.553Z,26.1
2022-08-17T07:18:50.211Z,26.1
2022-08-17T07:19:51.938Z,26.1
2022-08-17T07:20:57.144Z,26.1
2022-08-17T07:21:58.753Z,26.1
2022-08-17T07:23:00.740Z,26.2
2022-08-17T07:24:02.967Z,26.2
2022-08-17T07:25:04.783Z,26.1
2022-08-17T07:26:06.429Z,26.1
2022-08-17T07:27:08.038Z,26.1
2022-08-17T07:28:09.902Z,26.2
2022-08-17T07:29:11.480Z,26.1
2022-08-17T07:30:13.137Z,26.1
2022-08-17T07:31:14.827Z,26.2
2022-08-17T07:32:16.400Z,26.1
2022-08-17T07:33:18.038Z,26.1
2022-08-17T07:34:20.322Z,26.2
2022-08-17T07:35:22.061Z,26.2
2022-08-17T07:36:27.820Z,26.2
2022-08-17T07:37:31.747Z,26.2
2022-08-17T07:38:33.348Z,26.2
2022-08-17T07:39:35.011Z,26.2
2022-08-17T07:41:18.596Z,26.2
2022-08-17T07:42:20.223Z,26.2
2022-08-17T07:43:23.542Z,26.2
2022-08-17T07:44:25.487Z,26.2
2022-08-17T07:45:27.074Z,26.2
2022-08-17T07:46:28.713Z,26.2
2022-08-17T07:47:30.475Z,26.2
2022-08-17T07:48:32.153Z,26.2
2022-08-17T07:49:33.729Z,26.2
2022-08-17T07:50:35.474Z,26.2
2022-08-17T07:51:38.940Z,26.2
2022-08-17T07:52:47.576Z,26.2
2022-08-17T07:53:54.312Z,26.3
2022-08-17T07:54:59.847Z,26.3
2022-08-17T07:56:01.495Z,26.3
2022-08-17T07:57:03.116Z,26.3
2022-08-17T07:58:04.724Z,26.3
2022-08-17T07:59:06.278Z,26.2
2022-08-17T08:00:12.768Z,26.2
2022-08-17T08:01:18.555Z,26.3
2022-08-17T08:02:21.406Z,26.3
2022-08-17T08:03:35.371Z,26.2
2022-08-17T08:04:59.496Z,26.2
2022-08-17T08:06:03.997Z,26.2
2022-08-17T08:07:05.567Z,26.2
2022-08-17T08:08:07.168Z,26.2
2022-08-17T08:09:08.712Z,26.2
2022-08-17T08:10:10.253Z,26.2
2022-08-17T08:11:11.936Z,26.2
2022-08-17T08:12:13.905Z,26.3
2022-08-17T08:13:18.463Z,26.2
2022-08-17T08:14:20.027Z,26.2
2022-08-17T08:15:21.796Z,26.2
2022-08-17T08:16:23.489Z,26.1
2022-08-17T08:17:25.328Z,26.1
2022-08-17T08:18:38.847Z,26.1
2022-08-17T08:19:59.939Z,26.2
2022-08-17T08:21:55.272Z,26.2
2022-08-17T08:22:56.949Z,26.3
2022-08-17T08:23:58.578Z,26.2
2022-08-17T08:25:00.250Z,26.2
2022-08-17T08:26:01.789Z,26.2
2022-08-17T08:27:04.379Z,26.3
2022-08-17T08:28:05.972Z,26.3
2022-08-17T08:29:07.762Z,26.3
2022-08-17T08:30:09.603Z,26.3
2022-08-17T08:31:11.324Z,26.3
2022-08-17T08:32:12.925Z,26.3
2022-08-17T08:33:14.502Z,26.3
2022-08-17T08:34:44.768Z,26.2
2022-08-17T08:36:05.332Z,26.3
2022-08-17T08:37:16.273Z,26.3
2022-08-17T08:38:44.156Z,26.3
2022-08-17T08:39:45.820Z,26.3
2022-08-17T08:40:47.926Z,26.3
2022-08-17T08:41:49.579Z,26.3
2022-08-17T08:42:51.122Z,26.3
2022-08-17T08:43:53.296Z,26.3
2022-08-17T08:44:59.311Z,26.3
2022-08-17T08:46:07.344Z,26.3
2022-08-17T08:47:08.969Z,26.3
2022-08-17T08:48:12.868Z,26.2
2022-08-17T08:50:30.406Z,26.3
2022-08-17T08:51:40.419Z,26.3
2022-08-17T08:52:41.961Z,26.3
2022-08-17T08:53:43.672Z,26.3
2022-08-17T08:54:45.302Z,26.3
2022-08-17T08:55:46.942Z,26.3
2022-08-17T08:57:11.803Z,26.3
2022-08-17T08:58:42.177Z,26.3
2022-08-17T08:59:44.741Z,26.3
2022-08-17T09:01:00.254Z,26.4
2022-08-17T09:02:02.394Z,26.4
2022-08-17T09:03:04.029Z,26.4
2022-08-17T09:04:21.729Z,26.3
2022-08-17T09:05:27.616Z,26.3
2022-08-17T09:06:32.597Z,26.4
2022-08-17T09:07:41.811Z,26.3
2022-08-17T09:08:43.618Z,26.3
2022-08-17T09:09:45.261Z,26.3
2022-08-17T09:10:46.905Z,26.2
2022-08-17T09:12:00.968Z,26.2
2022-08-17T09:13:09.790Z,26.2
2022-08-17T09:14:21.387Z,26.1
2022-08-17T09:15:30.729Z,26.2
2022-08-17T09:16:32.352Z,26.2
2022-08-17T09:17:33.963Z,26.2
2022-08-17T09:18:58.957Z,26.2
2022-08-17T09:20:07.173Z,26.2
2022-08-17T09:21:08.827Z,26.3
2022-08-17T09:22:10.506Z,26.2
2022-08-17T09:23:12.150Z,26.2
2022-08-17T09:24:13.708Z,26.2
2022-08-17T09:25:22.490Z,26.2
2022-08-17T09:26:24.078Z,26.1
2022-08-17T09:27:25.618Z,26.1
2022-08-17T09:28:27.309Z,26.1
2022-08-17T09:29:28.939Z,26.2
2022-08-17T09:30:30.496Z,26.2
2022-08-17T09:31:33.422Z,26.2
2022-08-17T09:32:35.329Z,26.2
2022-08-17T09:33:36.984Z,26.1
2022-08-17T09:34:38.566Z,26.1
2022-08-17T09:35:49.885Z,26.1
2022-08-17T09:36:51.423Z,26.1
2022-08-17T09:37:53.012Z,26.1
2022-08-17T09:38:54.635Z,26.2
2022-08-17T09:39:56.403Z,26.3
2022-08-17T09:40:58.499Z,26.3
2022-08-17T09:42:00.139Z,26.2
2022-08-17T09:43:01.831Z,26.2
2022-08-17T09:44:03.443Z,26.2
2022-08-17T09:45:05.077Z,26.2
2022-08-17T09:46:06.745Z,26.1
2022-08-17T09:47:08.442Z,26.1
2022-08-17T09:48:10.164Z,26.1
2022-08-17T09:49:11.721Z,26.1
2022-08-17T09:50:13.470Z,26.1
2022-08-17T09:51:15.185Z,26.1
2022-08-17T09:52:17.801Z,26.1
2022-08-17T09:53:19.916Z,26.1
2022-08-17T09:54:38.441Z,26.1
2022-08-17T09:55:42.441Z,26.2
2022-08-17T09:56:46.333Z,26.2
2022-08-17T09:58:32.025Z,26.3
2022-08-17T09:59:38.181Z,26.3
2022-08-17T10:00:43.544Z,26.2
2022-08-17T10:01:45.594Z,26.2
2022-08-17T10:02:47.463Z,26.2
2022-08-17T10:03:49.176Z,26.3
2022-08-17T10:04:50.826Z,26.2
2022-08-17T10:05:55.024Z,26.2
2022-08-17T10:06:58.902Z,26.1
2022-08-17T10:08:00.449Z,26.1
2022-08-17T10:09:02.003Z,26.1
2022-08-17T10:10:03.686Z,26.2
2022-08-17T10:11:05.773Z,26.2
2022-08-17T10:12:07.783Z,26.2
2022-08-17T10:13:12.153Z,26.2
2022-08-17T10:14:36.157Z,26.2
2022-08-17T10:15:56.580Z,26.2
2022-08-17T10:16:58.280Z,26.2
2022-08-17T10:17:59.853Z,26.1
2022-08-17T10:19:01.397Z,26.1
2022-08-17T10:20:03.196Z,26.1
2022-08-17T10:21:05.004Z,26.1
2022-08-17T10:22:14.838Z,26.1
2022-08-17T10:23:39.765Z,26.2
2022-08-17T10:24:41.653Z,26.2
2022-08-17T10:26:56.260Z,26.3
2022-08-17T10:27:59.173Z,26.2
2022-08-17T10:29:00.749Z,26.1
2022-08-17T10:30:02.358Z,26
2022-08-17T10:31:33.516Z,26
2022-08-17T10:32:37.807Z,26
2022-08-17T10:33:39.632Z,25.9
2022-08-17T10:34:41.861Z,25.9
2022-08-17T10:35:43.577Z,26
2022-08-17T10:36:45.309Z,26.1
2022-08-17T10:37:46.984Z,26.1
2022-08-17T10:38:48.817Z,26.1
2022-08-17T10:39:52.427Z,26.2
2022-08-17T10:40:55.093Z,26.2
2022-08-17T10:41:56.822Z,26.2
2022-08-17T10:42:58.473Z,26.2
2022-08-17T10:44:37.715Z,26.1
2022-08-17T10:45:43.033Z,26
2022-08-17T10:46:48.763Z,25.9
2022-08-17T10:47:55.321Z,25.9
2022-08-17T10:49:08.097Z,25.8
2022-08-17T10:50:09.747Z,25.7
2022-08-17T10:51:11.292Z,25.8
2022-08-17T10:52:13.865Z,25.9
2022-08-17T10:53:19.828Z,26
2022-08-17T10:54:22.672Z,26.1
2022-08-17T10:55:24.252Z,26.1
2022-08-17T10:56:25.860Z,26.1
2022-08-17T10:57:27.586Z,26
2022-08-17T10:58:29.220Z,26
2022-08-17T10:59:30.839Z,26
2022-08-17T11:00:32.386Z,26.1
2022-08-17T11:01:34.271Z,26.2
2022-08-17T11:02:36.410Z,26.1
2022-08-17T11:03:38.196Z,26.1
2022-08-17T11:04:39.794Z,26
2022-08-17T11:05:43.927Z,25.9
2022-08-17T11:06:46.023Z,25.8
2022-08-17T11:07:47.604Z,25.9
2022-08-17T11:08:49.139Z,25.9
2022-08-17T11:09:50.875Z,26
2022-08-17T11:10:52.542Z,26
2022-08-17T11:11:54.088Z,26.1
2022-08-17T11:12:55.818Z,26.1
2022-08-17T11:13:57.554Z,26.1
2022-08-17T11:14:59.197Z,26.1
2022-08-17T11:16:04.788Z,26.1
2022-08-17T11:17:10.269Z,26.2
2022-08-17T11:18:13.914Z,26.3
2022-08-17T11:19:15.527Z,26.3
2022-08-17T11:20:17.097Z,26.1
2022-08-17T11:21:18.733Z,26
2022-08-17T11:22:20.311Z,25.9
2022-08-17T11:23:21.965Z,25.9
2022-08-17T11:24:23.749Z,26
2022-08-17T11:25:25.651Z,26
2022-08-17T11:26:27.256Z,26.1
2022-08-17T11:27:28.978Z,26.1
2022-08-17T11:28:30.526Z,26.2
2022-08-17T11:29:32.299Z,26.2
2022-08-17T11:30:38.373Z,26.1
2022-08-17T11:31:40.077Z,26.2
2022-08-17T11:32:47.293Z,26.2
2022-08-17T11:33:57.854Z,26.2
2022-08-17T11:34:59.457Z,26.3
2022-08-17T11:36:01.247Z,26.3
2022-08-17T11:37:02.915Z,26.2
2022-08-17T11:38:04.743Z,26.1
2022-08-17T11:39:15.381Z,26.1
2022-08-17T11:40:17.142Z,26.2
2022-08-17T11:41:19.303Z,26.3
2022-08-17T11:42:21.041Z,26.3
2022-08-17T11:43:25.506Z,26.3
2022-08-17T11:44:27.409Z,26.4
2022-08-17T11:45:31.628Z,26.5
2022-08-17T11:46:34.724Z,26.6
2022-08-17T11:47:36.282Z,26.5
2022-08-17T11:48:37.992Z,26.5
2022-08-17T11:49:39.701Z,26.4
2022-08-17T11:50:41.482Z,26.3
2022-08-17T11:51:43.126Z,26.3
2022-08-17T11:52:46.005Z,26.3
2022-08-17T11:53:48.686Z,26.4
2022-08-17T11:54:50.445Z,26.3
2022-08-17T11:55:52.150Z,26.3
2022-08-17T11:56:54.015Z,26.3
2022-08-17T11:57:55.826Z,26.3
2022-08-17T11:58:57.474Z,26.3
2022-08-17T11:59:59.193Z,26.3
2022-08-17T12:01:01.087Z,26.2
2022-08-17T12:02:03.013Z,26.2
2022-08-17T12:03:04.719Z,26.2
2022-08-17T12:04:06.725Z,26.2
2022-08-17T12:05:09.604Z,26.3
2022-08-17T12:06:13.981Z,26.3
2022-08-17T12:07:15.539Z,26.3
2022-08-17T12:08:17.107Z,26.3
2022-08-17T12:09:18.885Z,26.3
2022-08-17T12:10:20.972Z,26.3
2022-08-17T12:11:55.049Z,26.2
2022-08-17T12:13:16.263Z,26
2022-08-17T12:14:22.529Z,26
2022-08-17T12:16:12.883Z,26.1
2022-08-17T12:17:14.512Z,26.1
2022-08-17T12:18:55.032Z,26.2
2022-08-17T12:19:56.570Z,26.2
2022-08-17T12:20:58.192Z,26.2
2022-08-17T12:21:59.821Z,26.2
2022-08-17T12:23:01.617Z,26.2
2022-08-17T12:24:03.334Z,26.2
2022-08-17T12:25:04.973Z,26.2
2022-08-17T12:26:06.635Z,26.2
2022-08-17T12:27:08.249Z,26.2
2022-08-17T12:28:10.052Z,26.2
2022-08-17T12:29:17.954Z,26.2
2022-08-17T12:30:40.751Z,26.2
2022-08-17T12:31:42.561Z,26.2
2022-08-17T12:32:44.243Z,26.2
2022-08-17T12:33:45.812Z,26.2
2022-08-17T12:34:47.371Z,26.2
2022-08-17T12:35:49.034Z,26.2
2022-08-17T12:37:01.202Z,26.1
2022-08-17T12:38:03.577Z,26.1
2022-08-17T12:39:13.230Z,26
2022-08-17T12:40:27.591Z,26
2022-08-17T12:41:29.270Z,26
2022-08-17T12:42:30.982Z,26
2022-08-17T12:43:32.620Z,26
2022-08-17T12:44:34.508Z,26.1
2022-08-17T12:45:52.200Z,26.1
2022-08-17T12:46:53.818Z,26.1
2022-08-17T12:47:55.679Z,26.1
2022-08-17T12:48:59.482Z,26.1
2022-08-17T12:50:01.873Z,26.1
2022-08-17T12:51:03.482Z,26.1
2022-08-17T12:52:05.234Z,26.2
2022-08-17T12:53:06.770Z,26.1
2022-08-17T12:54:08.320Z,26.1
2022-08-17T12:55:13.034Z,26.1
2022-08-17T12:56:14.652Z,26.1
2022-08-17T12:57:16.389Z,26.1
2022-08-17T12:58:18.105Z,26.1
2022-08-17T12:59:30.063Z,26.1
2022-08-17T13:00:34.528Z,26.2
2022-08-17T13:01:36.378Z,26.2
2022-08-17T13:02:38.347Z,26.2
2022-08-17T13:03:39.983Z,26.2
2022-08-17T13:04:41.546Z,26.3
2022-08-17T13:05:43.429Z,26.2
2022-08-17T13:06:45.032Z,26.2
2022-08-17T13:07:46.813Z,26.2
2022-08-17T13:08:49.083Z,26.2
2022-08-17T13:09:50.837Z,26.2
2022-08-17T13:10:52.546Z,26.1
2022-08-17T13:11:54.222Z,26.1
2022-08-17T13:12:56.043Z,26.2
2022-08-17T13:13:57.738Z,26.2
2022-08-17T13:14:59.380Z,26.2
2022-08-17T13:16:01.107Z,26.2
2022-08-17T13:17:02.686Z,26.2
2022-08-17T13:18:04.341Z,26.2
2022-08-17T13:19:05.948Z,26.1
2022-08-17T13:20:07.652Z,26.1
2022-08-17T13:21:09.192Z,26.1
2022-08-17T13:22:10.805Z,26.1
2022-08-17T13:23:12.713Z,26.1
2022-08-17T13:24:14.326Z,26
2022-08-17T13:25:16.171Z,26
2022-08-17T13:26:17.918Z,26
2022-08-17T13:27:19.540Z,26
2022-08-17T13:28:30.625Z,26
2022-08-17T13:29:38.261Z,26
2022-08-17T13:30:39.814Z,26
2022-08-17T13:31:47.475Z,26
2022-08-17T13:33:14.338Z,26.1
2022-08-17T13:35:07.773Z,26.1
2022-08-17T13:36:42.290Z,26.2
2022-08-17T13:37:52.681Z,26.3
2022-08-17T13:38:54.405Z,26.3
2022-08-17T13:39:56.120Z,26.2
2022-08-17T13:40:58.204Z,26.1
2022-08-17T13:41:59.887Z,26
2022-08-17T13:43:01.705Z,26
2022-08-17T13:44:03.341Z,26
2022-08-17T13:45:22.444Z,26
2022-08-17T13:46:43.356Z,26.1
2022-08-17T13:47:44.999Z,26.1
2022-08-17T13:48:46.645Z,26.1
2022-08-17T13:49:49.427Z,26.1
2022-08-17T13:50:51.225Z,26.1
2022-08-17T13:51:52.950Z,26.1
2022-08-17T13:52:59.257Z,26.1
2022-08-17T13:54:01.032Z,26.2
2022-08-17T13:55:02.811Z,26.2
2022-08-17T13:56:04.672Z,26.1
2022-08-17T13:57:06.352Z,26.1
2022-08-17T13:58:07.981Z,26.1
2022-08-17T13:59:10.106Z,26.1
2022-08-17T14:00:11.687Z,26.1
2022-08-17T14:01:13.308Z,26.1
2022-08-17T14:02:15.245Z,26.1
2022-08-17T14:03:16.911Z,26.1
2022-08-17T14:04:18.630Z,26.1
2022-08-17T14:05:20.291Z,26.1
2022-08-17T14:06:49.790Z,26.1
2022-08-17T14:07:55.937Z,26.1
2022-08-17T14:08:57.761Z,26.1
2022-08-17T14:09:59.544Z,26.2
2022-08-17T14:11:01.284Z,26.2
2022-08-17T14:12:03.086Z,26.2
2022-08-17T14:13:05.179Z,26.2
2022-08-17T14:14:06.858Z,26.2
2022-08-17T14:15:08.535Z,26.1
2022-08-17T14:16:10.319Z,26
2022-08-17T14:17:11.969Z,25.9
2022-08-17T14:18:13.631Z,25.9
2022-08-17T14:19:15.199Z,25.9
2022-08-17T14:20:17.001Z,25.8
2022-08-17T14:21:18.608Z,25.7
2022-08-17T14:22:20.295Z,25.8
2022-08-17T14:23:21.943Z,25.9
2022-08-17T14:24:23.486Z,25.9
2022-08-17T14:25:25.219Z,25.9
2022-08-17T14:26:26.859Z,26
2022-08-17T14:27:28.448Z,26